Time;durP1;ratioP1;P1;durP2;ratioP2;P2;SDS_P1;SDS_P2;PMS_P1;PMS_P2;Temp;Humidity;BMP_temperature;BMP_pressure;BME280_temperature;BME280_humidity;BME280_pressure;Samples;Min_cycle;Max_cycle;Signal;HPM_P1;HPM_P2
2022/12/01 00:02:09;;;;;;;25.00;14.23;;;2.10;99.90;;;;;;5086396;28;20540;-76
2022/12/01 00:04:36;;;;;;;22.70;13.40;;;2.10;99.90;;;;;;5085969;28;20493;-77
2022/12/01 00:07:05;;;;;;;21.00;13.87;;;2.10;99.90;;;;;;5088989;28;20520;-77
2022/12/01 00:12:16;;;;;;;22.40;13.03;;;1.90;99.90;;;;;;5092414;28;20563;-77
2022/12/01 00:14:53;;;;;;;27.63;13.60;;;1.90;99.90;;;;;;5096235;28;20451;-77
2022/12/01 00:17:20;;;;;;;24.70;12.30;;;1.90;99.90;;;;;;5088469;28;20461;-77
2022/12/01 00:19:47;;;;;;;19.50;12.77;;;1.90;99.90;;;;;;5100169;28;20993;-77
2022/12/01 00:22:15;;;;;;;24.07;14.73;;;1.90;99.90;;;;;;5095206;28;20956;-77
2022/12/01 00:24:42;;;;;;;20.50;12.70;;;1.80;99.90;;;;;;5091177;28;20485;-76
2022/12/01 00:27:09;;;;;;;23.33;14.73;;;1.80;99.90;;;;;;5093417;28;20515;-76
2022/12/01 00:29:36;;;;;;;18.43;14.70;;;1.80;99.90;;;;;;5091634;28;20521;-76
2022/12/01 00:32:03;;;;;;;24.20;13.87;;;1.80;99.90;;;;;;5090662;28;20579;-76
2022/12/01 00:34:30;;;;;;;33.63;16.13;;;1.80;99.90;;;;;;5092586;28;20511;-77
2022/12/01 00:36:57;;;;;;;23.50;13.70;;;1.70;99.90;;;;;;5088705;28;20494;-77
2022/12/01 00:39:25;;;;;;;22.50;15.13;;;1.70;99.90;;;;;;5096815;28;20467;-76
2022/12/01 00:41:52;;;;;;;26.07;16.33;;;1.60;99.90;;;;;;5104557;27;20622;-77
2022/12/01 00:44:19;;;;;;;24.43;19.50;;;1.60;99.90;;;;;;5097621;28;21298;-76
2022/12/01 00:46:46;;;;;;;26.73;17.77;;;1.70;99.90;;;;;;5088214;28;20492;-76
2022/12/01 00:49:14;;;;;;;25.60;17.07;;;1.70;99.90;;;;;;5086030;28;20562;-77
2022/12/01 00:51:41;;;;;;;24.97;15.33;;;1.60;99.90;;;;;;5090686;28;20450;-77
2022/12/01 00:54:08;;;;;;;21.97;16.17;;;1.60;99.90;;;;;;5091772;28;20489;-77
2022/12/01 00:56:36;;;;;;;31.03;19.53;;;1.70;99.90;;;;;;5098744;28;20484;-76
2022/12/01 00:59:03;;;;;;;28.93;17.40;;;1.80;99.90;;;;;;5092299;28;20492;-77
2022/12/01 01:01:30;;;;;;;29.33;17.97;;;1.80;99.90;;;;;;5087676;28;20551;-77
2022/12/01 01:03:58;;;;;;;33.03;19.80;;;1.70;99.90;;;;;;5092669;28;20461;-77
2022/12/01 01:06:25;;;;;;;31.83;17.40;;;1.70;99.90;;;;;;5095697;28;20556;-76
2022/12/01 01:08:52;;;;;;;27.70;17.40;;;1.70;99.90;;;;;;5097596;28;20473;-76
2022/12/01 01:11:19;;;;;;;29.53;17.33;;;1.70;99.90;;;;;;5092323;28;20521;-77
2022/12/01 01:13:47;;;;;;;37.87;19.43;;;1.80;99.90;;;;;;5090311;28;20518;-77
2022/12/01 01:16:16;;;;;;;33.90;20.03;;;1.80;99.90;;;;;;5094157;28;20527;-77
2022/12/01 01:18:43;;;;;;;35.57;17.30;;;1.80;99.90;;;;;;5090454;28;20535;-77
2022/12/01 01:21:14;;;;;;;29.20;17.70;;;1.70;99.90;;;;;;5088180;28;20466;-76
2022/12/01 01:23:41;;;;;;;31.20;17.10;;;1.80;99.90;;;;;;5087982;28;20486;-76
2022/12/01 01:26:10;;;;;;;35.50;21.13;;;1.80;99.90;;;;;;5085268;28;20958;-77
2022/12/01 01:28:37;;;;;;;32.00;20.87;;;1.80;99.90;;;;;;5092950;28;20549;-77
2022/12/01 01:31:07;;;;;;;32.20;18.43;;;1.80;99.90;;;;;;5092802;28;21148;-77
2022/12/01 01:33:34;;;;;;;29.40;19.70;;;1.80;99.90;;;;;;5097910;28;20522;-77
2022/12/01 01:36:03;;;;;;;31.63;20.00;;;1.70;99.90;;;;;;5089395;28;20595;-77
2022/12/01 01:38:31;;;;;;;33.57;17.60;;;1.80;99.90;;;;;;5093193;28;20542;-77
2022/12/01 01:40:58;;;;;;;36.90;20.67;;;1.80;99.90;;;;;;5093118;27;20559;-77
2022/12/01 01:43:44;;;;;;;35.90;19.37;;;1.80;99.90;;;;;;5101421;27;20572;-77
2022/12/01 01:46:15;;;;;;;35.60;20.00;;;1.80;99.90;;;;;;5083660;28;20498;-77
2022/12/01 01:48:46;;;;;;;38.60;18.07;;;1.70;99.90;;;;;;5085499;28;20520;-77
2022/12/01 01:51:15;;;;;;;35.77;18.30;;;1.80;99.90;;;;;;5093460;28;20543;-77
2022/12/01 01:53:45;;;;;;;28.23;17.87;;;1.80;99.90;;;;;;5088349;28;20562;-77
2022/12/01 01:56:12;;;;;;;28.90;19.63;;;1.80;99.90;;;;;;5087398;28;20540;-77
2022/12/01 01:58:41;;;;;;;39.27;17.97;;;1.80;99.90;;;;;;5092759;28;20504;-77
2022/12/01 02:01:08;;;;;;;29.23;18.57;;;1.80;99.90;;;;;;5094667;28;20519;-77
2022/12/01 02:03:38;;;;;;;43.77;21.87;;;1.80;99.90;;;;;;5094553;28;20953;-77
2022/12/01 02:06:07;;;;;;;28.00;17.23;;;1.80;99.90;;;;;;5098751;28;20485;-77
2022/12/01 02:08:37;;;;;;;35.03;20.03;;;1.80;99.90;;;;;;5084615;28;20938;-77
2022/12/01 02:11:33;;;;;;;36.43;21.30;;;1.80;99.90;;;;;;5091098;28;20552;-77
2022/12/01 02:14:08;;;;;;;29.80;18.20;;;1.80;99.90;;;;;;5089943;28;20579;-77
2022/12/01 02:16:44;;;;;;;34.37;18.47;;;1.80;99.90;;;;;;5094274;28;20507;-77
2022/12/01 02:19:36;;;;;;;30.80;17.63;;;1.90;99.90;;;;;;5084900;28;20842;-77
2022/12/01 02:22:17;;;;;;;33.50;17.87;;;1.80;99.90;;;;;;5091832;28;20525;-77
2022/12/01 02:25:21;;;;;;;35.40;19.07;;;1.80;99.90;;;;;;5091761;28;21147;-77
2022/12/01 02:28:36;;;;;;;34.50;17.27;;;1.80;99.90;;;;;;5077331;27;20513;-77
2022/12/01 02:31:12;;;;;;;37.13;20.87;;;1.80;99.90;;;;;;5025503;28;20872;-77
2022/12/01 02:33:43;;;;;;;38.90;20.00;;;1.80;99.90;;;;;;5023028;28;20524;-77
2022/12/01 02:36:16;;;;;;;34.73;21.20;;;1.70;99.90;;;;;;5062734;28;20491;-77
2022/12/01 02:38:50;;;;;;;31.30;17.97;;;1.70;99.90;;;;;;5090012;28;20556;-77
2022/12/01 02:41:23;;;;;;;33.07;19.97;;;1.70;99.90;;;;;;5087105;28;20568;-77
2022/12/01 02:44:01;;;;;;;38.20;20.80;;;1.60;99.90;;;;;;5094444;27;20477;-77
2022/12/01 02:46:34;;;;;;;39.67;20.70;;;1.60;99.90;;;;;;5085229;28;20473;-77
2022/12/01 02:49:06;;;;;;;34.00;19.37;;;1.60;99.90;;;;;;5093001;28;20575;-77
2022/12/01 02:51:36;;;;;;;41.07;22.70;;;1.60;99.90;;;;;;5090319;28;21030;-77
2022/12/01 02:54:05;;;;;;;37.90;20.13;;;1.50;99.90;;;;;;5092307;28;20516;-77
2022/12/01 02:56:33;;;;;;;25.70;17.67;;;1.50;99.90;;;;;;5094082;28;20462;-77
2022/12/01 02:59:00;;;;;;;35.93;20.97;;;1.50;99.90;;;;;;5090750;28;20535;-77
2022/12/01 03:01:43;;;;;;;38.83;19.60;;;1.50;99.90;;;;;;5089293;28;20550;-77
2022/12/01 03:04:42;;;;;;;31.47;18.07;;;1.50;99.90;;;;;;5086321;28;20458;-77
2022/12/01 03:07:16;;;;;;;42.47;22.67;;;1.40;99.90;;;;;;5082474;28;20539;-77
2022/12/01 03:09:52;;;;;;;42.87;22.83;;;1.40;99.90;;;;;;5084654;28;20595;-77
2022/12/01 03:12:28;;;;;;;31.60;19.10;;;1.40;99.90;;;;;;5091046;28;20561;-77
2022/12/01 03:15:06;;;;;;;37.00;20.27;;;1.30;99.90;;;;;;5089310;28;21223;-77
2022/12/01 03:17:40;;;;;;;38.17;20.53;;;1.30;99.90;;;;;;5093848;28;20465;-77
2022/12/01 03:20:13;;;;;;;32.57;20.37;;;1.20;99.90;;;;;;5085278;28;20602;-77
2022/12/01 03:22:46;;;;;;;39.83;23.63;;;1.20;99.90;;;;;;5092189;28;20916;-77
2022/12/01 03:25:14;;;;;;;41.67;20.77;;;1.20;99.90;;;;;;5084511;28;20482;-77
2022/12/01 03:27:45;;;;;;;42.43;19.50;;;1.20;99.90;;;;;;5090880;28;20521;-77
2022/12/01 03:30:14;;;;;;;43.00;24.80;;;1.20;99.90;;;;;;5086219;28;20458;-77
2022/12/01 03:32:48;;;;;;;39.93;24.10;;;1.20;99.90;;;;;;5094331;28;20542;-77
2022/12/01 03:35:19;;;;;;;39.63;20.87;;;1.20;99.90;;;;;;5089120;28;20545;-77
2022/12/01 03:37:51;;;;;;;40.93;20.43;;;1.20;99.90;;;;;;5091459;28;20561;-77
2022/12/01 03:40:24;;;;;;;38.40;21.97;;;1.20;99.90;;;;;;5087243;28;21228;-77
2022/12/01 03:42:55;;;;;;;47.90;22.50;;;1.20;99.90;;;;;;5091556;28;20465;-77
2022/12/01 03:45:27;;;;;;;37.53;22.70;;;1.20;99.90;;;;;;5092541;28;20463;-77
2022/12/01 03:47:56;;;;;;;42.03;20.83;;;1.20;99.90;;;;;;5090220;28;20547;-77
2022/12/01 03:50:28;;;;;;;37.87;20.07;;;1.20;99.90;;;;;;5098691;28;20461;-77
2022/12/01 03:53:06;;;;;;;41.93;23.20;;;1.30;99.90;;;;;;5093421;28;20518;-77
2022/12/01 03:55:38;;;;;;;40.47;21.80;;;1.20;99.90;;;;;;5095535;28;20531;-77
2022/12/01 03:58:11;;;;;;;41.03;22.77;;;1.20;99.90;;;;;;5090143;28;20559;-77
2022/12/01 04:00:38;;;;;;;38.87;21.37;;;1.20;99.90;;;;;;5089591;28;20461;-77
2022/12/01 04:03:08;;;;;;;38.90;21.40;;;1.20;99.90;;;;;;5095222;28;20443;-77
2022/12/01 04:05:35;;;;;;;39.90;22.43;;;1.20;99.90;;;;;;5090872;28;20747;-77
2022/12/01 04:08:02;;;;;;;45.30;21.63;;;1.10;99.90;;;;;;5094685;28;20499;-77
2022/12/01 04:10:31;;;;;;;41.97;24.60;;;1.10;99.90;;;;;;5094673;28;20461;-77
2022/12/01 04:12:58;;;;;;;38.38;20.75;;;1.10;99.90;;;;;;5092598;28;20513;-77
2022/12/01 04:15:26;;;;;;;36.97;19.73;;;1.10;99.90;;;;;;5099240;28;20206;-77
2022/12/01 04:17:53;;;;;;;41.27;19.90;;;1.20;99.90;;;;;;5090722;28;20953;-77
2022/12/01 04:20:23;;;;;;;37.70;21.80;;;1.20;99.90;;;;;;5095231;28;20936;-77
2022/12/01 04:22:49;;;;;;;53.87;24.67;;;1.30;99.90;;;;;;5094383;28;20947;-77
2022/12/01 04:25:17;;;;;;;35.17;20.20;;;1.30;99.90;;;;;;5086735;28;20575;-77
2022/12/01 04:27:44;;;;;;;36.20;19.40;;;1.40;99.90;;;;;;5091407;28;21078;-77
2022/12/01 04:30:12;;;;;;;31.77;19.73;;;1.40;99.90;;;;;;5091368;28;20497;-77
2022/12/01 04:32:40;;;;;;;42.63;19.80;;;1.40;99.90;;;;;;5087529;28;20633;-77
2022/12/01 04:35:08;;;;;;;33.90;18.20;;;1.50;99.90;;;;;;5098570;28;20473;-77
2022/12/01 04:37:36;;;;;;;37.83;20.93;;;1.40;99.90;;;;;;5090582;28;20502;-76
2022/12/01 04:40:04;;;;;;;43.03;20.27;;;1.40;99.90;;;;;;5095349;28;21054;-77
2022/12/01 04:42:31;;;;;;;40.70;20.50;;;1.50;99.90;;;;;;5093185;27;20478;-77
2022/12/01 04:44:58;;;;;;;32.60;19.30;;;1.60;99.90;;;;;;5092392;28;20481;-77
2022/12/01 04:47:25;;;;;;;36.77;20.10;;;1.60;99.90;;;;;;5086395;28;20462;-77
2022/12/01 04:49:53;;;;;;;40.03;19.60;;;1.60;99.90;;;;;;5089504;28;20555;-77
2022/12/01 04:52:20;;;;;;;31.67;19.80;;;1.60;99.90;;;;;;5088765;28;20471;-77
2022/12/01 04:54:48;;;;;;;39.20;20.10;;;1.70;99.90;;;;;;5087677;28;21045;-77
2022/12/01 04:57:15;;;;;;;39.83;19.37;;;1.70;99.90;;;;;;5096614;28;20515;-76
2022/12/01 04:59:42;;;;;;;35.03;19.80;;;1.80;99.90;;;;;;5097636;28;20550;-77
2022/12/01 05:02:09;;;;;;;36.30;18.93;;;1.70;99.90;;;;;;5104176;28;20515;-77
2022/12/01 05:04:37;;;;;;;36.43;17.67;;;1.70;99.90;;;;;;5094409;28;20451;-76
2022/12/01 05:07:04;;;;;;;31.80;18.43;;;1.70;99.90;;;;;;5098115;28;20511;-77
2022/12/01 05:09:31;;;;;;;35.67;22.10;;;1.70;99.90;;;;;;5100241;28;20710;-77
2022/12/01 05:11:59;;;;;;;31.93;17.70;;;1.60;99.90;;;;;;5097527;28;20558;-76
2022/12/01 05:14:26;;;;;;;37.13;20.07;;;1.60;99.90;;;;;;5093085;28;20563;-77
2022/12/01 05:16:54;;;;;;;30.93;16.40;;;1.50;99.90;;;;;;5096081;28;20916;-77
2022/12/01 05:22:05;;;;;;;31.03;19.40;;;1.50;99.90;;;;;;5090863;28;20445;-77
2022/12/01 05:24:32;;;;;;;39.47;19.83;;;1.50;99.90;;;;;;5088027;28;20607;-76
2022/12/01 05:27:01;;;;;;;39.83;19.37;;;1.50;99.90;;;;;;5087286;28;20525;-77
2022/12/01 05:29:28;;;;;;;38.07;20.70;;;1.50;99.90;;;;;;5090216;28;20509;-77
2022/12/01 05:31:54;;;;;;;35.57;21.10;;;1.50;99.90;;;;;;5092305;28;20477;-77
2022/12/01 05:34:21;;;;;;;37.97;19.63;;;1.40;99.90;;;;;;5092398;28;20528;-77
2022/12/01 05:36:48;;;;;;;46.37;20.93;;;1.40;99.90;;;;;;5088771;28;20520;-77
2022/12/01 05:39:15;;;;;;;40.80;20.80;;;1.50;99.90;;;;;;5093882;28;20528;-77
2022/12/01 05:41:42;;;;;;;35.27;18.13;;;1.50;99.90;;;;;;5101943;27;20511;-77
2022/12/01 05:44:11;;;;;;;52.97;20.10;;;1.50;99.90;;;;;;5097866;28;21110;-77
2022/12/01 05:46:38;;;;;;;44.13;21.40;;;1.50;99.90;;;;;;5091064;28;20496;-77
2022/12/01 05:49:05;;;;;;;32.60;18.53;;;1.50;99.90;;;;;;5089442;28;20486;-77
2022/12/01 05:51:32;;;;;;;37.55;19.75;;;1.50;99.90;;;;;;5085857;28;20516;-77
2022/12/01 05:53:59;;;;;;;35.93;18.13;;;1.50;99.90;;;;;;5091394;28;20279;-77
2022/12/01 05:56:26;;;;;;;39.87;20.37;;;1.50;99.90;;;;;;5093485;28;20649;-77
2022/12/01 05:58:53;;;;;;;40.27;21.63;;;1.60;99.90;;;;;;5092059;28;20458;-77
2022/12/01 06:01:22;;;;;;;35.20;22.17;;;1.60;99.90;;;;;;5090048;28;20524;-77
2022/12/01 06:03:49;;;;;;;33.43;18.63;;;1.60;99.90;;;;;;5088418;28;20551;-77
2022/12/01 06:06:16;;;;;;;33.97;19.93;;;1.60;99.90;;;;;;5087074;28;20486;-77
2022/12/01 06:08:43;;;;;;;43.40;23.10;;;1.60;99.90;;;;;;5087179;28;20492;-77
2022/12/01 06:11:10;;;;;;;39.77;20.80;;;1.60;99.90;;;;;;5089477;28;20482;-77
2022/12/01 06:13:37;;;;;;;34.10;18.60;;;1.60;99.90;;;;;;5089632;28;20502;-76
2022/12/01 06:16:06;;;;;;;35.07;19.40;;;1.60;99.90;;;;;;5094994;28;20484;-77
2022/12/01 06:18:36;;;;;;;30.73;18.53;;;1.60;99.90;;;;;;5087484;28;20559;-77
2022/12/01 06:21:04;;;;;;;40.67;20.53;;;1.60;99.90;;;;;;5097555;28;20493;-77
2022/12/01 06:23:31;;;;;;;35.90;18.90;;;1.60;99.90;;;;;;5088298;28;20490;-77
2022/12/01 06:25:58;;;;;;;35.07;19.40;;;1.60;99.90;;;;;;5087118;28;20473;-77
2022/12/01 06:28:25;;;;;;;35.00;20.33;;;1.60;99.90;;;;;;5087126;28;20564;-77
2022/12/01 06:30:52;;;;;;;33.83;19.00;;;1.70;99.90;;;;;;5089191;28;20495;-77
2022/12/01 06:33:19;;;;;;;28.60;14.63;;;1.70;99.90;;;;;;5089674;27;20467;-77
2022/12/01 06:35:47;;;;;;;45.03;19.40;;;1.70;99.90;;;;;;5089086;28;21023;-77
2022/12/01 06:38:15;;;;;;;38.03;19.10;;;1.70;99.90;;;;;;5087677;28;21941;-77
2022/12/01 06:40:43;;;;;;;33.93;17.77;;;1.70;99.90;;;;;;5100106;28;20497;-77
2022/12/01 06:43:10;;;;;;;36.43;20.90;;;1.70;99.90;;;;;;5096213;28;20498;-77
2022/12/01 06:45:38;;;;;;;36.07;18.33;;;1.70;99.90;;;;;;5084585;28;20467;-77
2022/12/01 06:48:05;;;;;;;33.63;17.77;;;1.70;99.90;;;;;;5084397;28;20564;-77
2022/12/01 06:50:32;;;;;;;41.43;22.70;;;1.70;99.90;;;;;;5083982;28;20459;-77
2022/12/01 06:53:00;;;;;;;42.60;24.37;;;1.60;99.90;;;;;;5090760;27;21285;-77
2022/12/01 06:55:27;;;;;;;35.27;17.77;;;1.60;99.90;;;;;;5088270;28;20513;-77
2022/12/01 06:57:54;;;;;;;41.90;21.33;;;1.60;99.90;;;;;;5093831;28;20520;-77
2022/12/01 07:00:22;;;;;;;37.27;20.83;;;1.60;99.90;;;;;;5088146;28;20476;-77
2022/12/01 07:02:49;;;;;;;33.90;19.90;;;1.60;99.90;;;;;;5087553;28;20470;-77
2022/12/01 07:05:16;;;;;;;37.77;20.13;;;1.60;99.90;;;;;;5091124;28;20496;-78
2022/12/01 07:07:43;;;;;;;42.10;22.53;;;1.60;99.90;;;;;;5089069;28;20550;-77
2022/12/01 07:10:12;;;;;;;39.03;21.73;;;1.70;99.90;;;;;;5089958;28;20494;-77
2022/12/01 07:12:40;;;;;;;41.57;22.20;;;1.60;99.90;;;;;;5096358;28;20523;-77
2022/12/01 07:15:08;;;;;;;38.00;19.13;;;1.70;99.90;;;;;;5092860;28;20985;-77
2022/12/01 07:17:35;;;;;;;38.20;20.87;;;1.70;99.90;;;;;;5083981;28;20550;-77
2022/12/01 07:20:02;;;;;;;37.57;20.37;;;1.70;99.90;;;;;;5100170;28;20489;-77
2022/12/01 07:22:29;;;;;;;48.57;22.30;;;1.70;99.90;;;;;;5098098;28;20460;-77
2022/12/01 07:24:56;;;;;;;36.97;20.40;;;1.60;99.90;;;;;;5097713;28;20489;-77
2022/12/01 07:27:25;;;;;;;39.33;20.60;;;1.70;99.90;;;;;;5098894;27;20457;-77
2022/12/01 07:29:51;;;;;;;37.30;21.80;;;1.70;99.90;;;;;;5094989;28;20629;-77
2022/12/01 07:32:18;;;;;;;38.70;22.40;;;1.70;99.90;;;;;;5089984;28;20478;-77
2022/12/01 07:34:45;;;;;;;35.60;21.47;;;1.70;99.90;;;;;;5098834;28;20577;-77
2022/12/01 07:37:12;;;;;;;33.20;19.13;;;1.80;99.90;;;;;;5091128;28;20506;-77
2022/12/01 07:39:39;;;;;;;43.57;22.97;;;1.80;99.90;;;;;;5087052;28;20529;-77
2022/12/01 07:42:06;;;;;;;35.53;21.40;;;1.80;99.90;;;;;;5086849;28;20607;-77
2022/12/01 07:44:34;;;;;;;44.23;30.07;;;1.80;99.90;;;;;;5087470;28;20545;-77
2022/12/01 07:47:01;;;;;;;54.50;32.87;;;1.80;99.90;;;;;;5092659;28;20500;-77
2022/12/01 07:49:28;;;;;;;53.57;29.40;;;1.80;99.90;;;;;;5088438;28;21178;-77
2022/12/01 07:51:55;;;;;;;40.07;20.10;;;1.80;99.90;;;;;;5094456;28;20492;-77
2022/12/01 07:54:24;;;;;;;80.80;46.77;;;1.80;99.90;;;;;;5093787;28;20521;-77
2022/12/01 07:56:51;;;;;;;43.97;25.23;;;1.80;99.90;;;;;;5090900;28;22045;-77
2022/12/01 07:59:18;;;;;;;34.43;21.67;;;1.80;99.90;;;;;;5089738;27;20458;-77
2022/12/01 08:01:46;;;;;;;43.27;25.87;;;2.00;99.90;;;;;;5087949;28;20558;-77
2022/12/01 08:04:13;;;;;;;41.77;23.40;;;1.90;99.90;;;;;;5090809;28;20470;-76
2022/12/01 08:06:40;;;;;;;58.47;33.00;;;1.90;99.90;;;;;;5089202;28;20494;-76
2022/12/01 08:09:07;;;;;;;51.50;27.37;;;1.90;99.90;;;;;;5086435;28;20466;-76
2022/12/01 08:11:34;;;;;;;43.70;24.23;;;2.00;99.90;;;;;;5084464;28;21003;-76
2022/12/01 08:14:02;;;;;;;49.00;28.00;;;2.10;99.90;;;;;;5089661;28;20537;-76
2022/12/01 08:16:30;;;;;;;44.20;26.47;;;2.20;99.90;;;;;;5085336;27;21054;-76
2022/12/01 08:18:58;;;;;;;46.00;25.23;;;2.10;99.90;;;;;;5085617;28;20478;-76
2022/12/01 08:21:25;;;;;;;43.43;24.00;;;2.10;99.90;;;;;;5086840;28;20547;-76
2022/12/01 08:23:54;;;;;;;43.97;24.30;;;2.30;99.90;;;;;;5083737;28;20600;-76
2022/12/01 08:26:22;;;;;;;41.57;26.77;;;2.30;99.90;;;;;;5086270;28;20461;-76
2022/12/01 08:28:49;;;;;;;50.50;29.53;;;2.30;99.90;;;;;;5089118;28;20859;-76
2022/12/01 08:31:19;;;;;;;50.03;24.80;;;2.30;99.90;;;;;;5088874;28;20860;-76
2022/12/01 08:33:46;;;;;;;39.13;22.90;;;2.40;99.90;;;;;;5097396;28;20475;-76
2022/12/01 08:36:15;;;;;;;52.13;25.20;;;2.40;99.90;;;;;;5091893;28;20546;-76
2022/12/01 08:38:43;;;;;;;42.70;22.70;;;2.30;99.90;;;;;;5095084;28;20470;-76
2022/12/01 08:41:10;;;;;;;48.97;25.53;;;2.30;99.90;;;;;;5095335;28;20465;-77
2022/12/01 08:43:38;;;;;;;55.53;31.73;;;2.50;99.90;;;;;;5085389;28;20462;-76
2022/12/01 08:46:06;;;;;;;71.47;37.27;;;2.50;99.90;;;;;;5095424;28;20453;-76
2022/12/01 08:48:33;;;;;;;66.60;33.83;;;2.40;99.90;;;;;;5085309;28;20603;-76
2022/12/01 08:51:05;;;;;;;67.37;34.33;;;2.40;99.90;;;;;;5090891;28;20494;-76
2022/12/01 08:53:35;;;;;;;84.13;40.20;;;2.40;99.90;;;;;;5086391;28;20447;-77
2022/12/01 08:56:03;;;;;;;84.17;39.63;;;2.30;99.90;;;;;;5086162;28;20578;-77
2022/12/01 08:58:30;;;;;;;73.60;39.70;;;2.30;99.90;;;;;;5087818;28;20542;-76
2022/12/01 09:01:04;;;;;;;89.37;42.67;;;2.30;99.90;;;;;;5092169;28;20938;-76
2022/12/01 09:03:32;;;;;;;92.87;52.57;;;2.30;99.90;;;;;;5085986;27;20931;-76
2022/12/01 09:06:04;;;;;;;102.87;53.30;;;2.30;99.90;;;;;;5091922;28;20563;-76
2022/12/01 09:08:31;;;;;;;94.73;48.73;;;2.30;99.90;;;;;;5086060;28;20940;-77
2022/12/01 09:11:01;;;;;;;89.67;47.97;;;2.30;99.90;;;;;;5088147;28;20465;-77
2022/12/01 09:13:28;;;;;;;60.80;32.77;;;2.20;99.90;;;;;;5085171;27;20526;-77
2022/12/01 09:15:57;;;;;;;44.77;23.87;;;2.20;99.90;;;;;;5084266;28;20485;-77
2022/12/01 09:18:24;;;;;;;37.43;23.40;;;2.30;99.90;;;;;;5086380;28;20498;-78
2022/12/01 09:20:51;;;;;;;40.00;22.40;;;2.40;99.90;;;;;;5085048;28;20547;-77
2022/12/01 09:23:18;;;;;;;46.87;22.17;;;2.50;99.90;;;;;;5087227;28;20494;-77
2022/12/01 09:25:45;;;;;;;32.00;18.97;;;2.50;99.90;;;;;;5081250;28;20953;-78
2022/12/01 09:28:13;;;;;;;36.93;19.33;;;2.50;99.90;;;;;;5089529;28;20539;-77
2022/12/01 09:30:41;;;;;;;43.50;21.10;;;2.50;99.90;;;;;;5086752;28;21053;-78
2022/12/01 09:33:07;;;;;;;38.70;20.43;;;2.60;99.90;;;;;;5088548;28;20523;-76
2022/12/01 09:35:35;;;;;;;37.00;21.33;;;2.70;99.90;;;;;;5085690;28;20478;-78
2022/12/01 09:38:03;;;;;;;37.77;20.57;;;2.70;99.90;;;;;;5092406;28;20494;-78
2022/12/01 09:40:33;;;;;;;33.47;20.20;;;2.60;99.90;;;;;;5083837;28;20450;-78
2022/12/01 09:43:03;;;;;;;45.07;26.30;;;2.60;99.90;;;;;;5084552;27;20524;-78
2022/12/01 09:45:36;;;;;;;43.60;23.67;;;2.50;99.90;;;;;;5083430;27;20809;-77
2022/12/01 09:48:06;;;;;;;39.63;21.43;;;2.60;99.90;;;;;;5087673;28;20494;-77
2022/12/01 09:50:33;;;;;;;36.37;19.23;;;2.70;99.90;;;;;;5080914;28;20881;-78
2022/12/01 09:53:06;;;;;;;34.97;19.77;;;2.60;99.90;;;;;;5085728;28;20535;-78
2022/12/01 09:55:34;;;;;;;44.33;24.03;;;2.60;99.90;;;;;;5084014;28;20579;-77
2022/12/01 09:58:03;;;;;;;38.70;21.27;;;2.80;99.90;;;;;;5085633;28;20523;-77
2022/12/01 10:00:36;;;;;;;43.97;21.33;;;2.90;99.90;;;;;;5087425;27;20492;-76
2022/12/01 10:03:25;;;;;;;35.50;18.93;;;3.00;99.90;;;;;;5084474;28;20494;-76
2022/12/01 10:05:55;;;;;;;35.10;19.00;;;2.90;99.90;;;;;;5086642;28;20546;-78
2022/12/01 10:08:26;;;;;;;39.80;20.70;;;2.80;99.90;;;;;;5085270;28;20450;-76
2022/12/01 10:10:58;;;;;;;38.50;18.73;;;3.00;99.90;;;;;;5084921;28;20558;-76
2022/12/01 10:13:27;;;;;;;34.83;17.57;;;3.10;99.90;;;;;;5087230;28;20901;-77
2022/12/01 10:16:04;;;;;;;35.13;20.77;;;3.00;99.90;;;;;;5088612;28;20544;-76
2022/12/01 10:18:39;;;;;;;29.63;17.10;;;3.10;99.90;;;;;;5083819;28;20442;-76
2022/12/01 10:21:13;;;;;;;33.13;19.67;;;2.90;99.90;;;;;;5089640;28;20498;-76
2022/12/01 10:23:56;;;;;;;36.20;20.43;;;3.00;99.90;;;;;;5084196;28;20491;-76
2022/12/01 10:26:31;;;;;;;40.83;21.93;;;2.80;99.90;;;;;;5085579;28;20494;-76
2022/12/01 10:29:11;;;;;;;31.03;16.70;;;2.80;99.90;;;;;;5091263;28;20864;-79
2022/12/01 10:31:50;;;;;;;39.80;17.67;;;2.80;99.90;;;;;;5088695;28;20484;-79
2022/12/01 10:34:20;;;;;;;35.10;17.17;;;2.80;99.90;;;;;;5090244;28;20873;-79
2022/12/01 10:36:47;;;;;;;37.07;19.10;;;2.90;99.90;;;;;;5083575;28;21177;-79
2022/12/01 10:39:19;;;;;;;35.93;19.70;;;3.00;99.90;;;;;;5082347;28;20556;-79
2022/12/01 10:41:48;;;;;;;38.27;19.27;;;3.00;99.90;;;;;;5086619;28;20469;-79
2022/12/01 10:44:17;;;;;;;37.83;18.40;;;3.00;99.90;;;;;;5086611;28;20531;-79
2022/12/01 10:46:49;;;;;;;34.00;19.10;;;3.10;99.90;;;;;;5084715;27;20486;-77
2022/12/01 10:49:17;;;;;;;36.50;18.50;;;3.00;99.90;;;;;;5082436;28;20486;-77
2022/12/01 10:51:51;;;;;;;36.87;21.83;;;3.00;99.90;;;;;;5081168;28;20494;-76
2022/12/01 10:54:18;;;;;;;33.87;19.43;;;3.00;99.90;;;;;;5083322;28;20457;-76
2022/12/01 10:56:48;;;;;;;35.73;20.13;;;3.00;99.90;;;;;;5082235;28;20489;-76
2022/12/01 10:59:26;;;;;;;35.47;20.20;;;3.10;99.90;;;;;;5088478;28;20501;-77
2022/12/01 11:01:56;;;;;;;42.43;22.77;;;3.30;99.90;;;;;;5084645;28;20917;-76
2022/12/01 11:04:41;;;;;;;42.20;22.00;;;3.30;99.90;;;;;;5084813;28;20524;-77
2022/12/01 11:07:16;;;;;;;33.50;20.33;;;3.20;99.90;;;;;;5087370;28;20466;-77
2022/12/01 11:09:46;;;;;;;38.57;23.63;;;3.30;99.90;;;;;;5088627;28;21091;-78
2022/12/01 11:12:16;;;;;;;42.03;24.50;;;3.20;99.90;;;;;;5089822;28;20557;-76
2022/12/01 11:14:47;;;;;;;37.23;21.00;;;3.20;99.90;;;;;;5084184;28;20493;-76
2022/12/01 11:17:28;;;;;;;37.80;21.10;;;3.20;99.90;;;;;;5086399;28;21093;-76
2022/12/01 11:19:55;;;;;;;34.00;19.70;;;3.20;99.90;;;;;;5085598;28;20470;-78
2022/12/01 11:22:24;;;;;;;40.20;22.47;;;3.20;99.90;;;;;;5083907;28;20487;-78
2022/12/01 11:25:00;;;;;;;42.87;23.30;;;3.20;99.90;;;;;;5087464;28;20543;-78
2022/12/01 11:27:31;;;;;;;35.77;19.23;;;3.30;99.90;;;;;;5088601;28;20489;-78
2022/12/01 11:30:03;;;;;;;36.70;17.83;;;3.30;99.90;;;;;;5089377;28;20949;-80
2022/12/01 11:32:35;;;;;;;35.30;18.57;;;3.30;99.90;;;;;;5087541;28;20822;-79
2022/12/01 11:35:06;;;;;;;33.10;18.90;;;3.20;99.90;;;;;;5094142;28;20482;-78
2022/12/01 11:37:37;;;;;;;41.20;22.50;;;3.30;99.90;;;;;;5082140;28;20557;-78
2022/12/01 11:40:20;;;;;;;35.10;20.70;;;3.30;99.90;;;;;;5082334;28;20990;-78
2022/12/01 11:42:50;;;;;;;32.97;18.90;;;3.40;99.90;;;;;;5078582;28;20462;-76
2022/12/01 11:45:29;;;;;;;32.83;20.13;;;3.50;99.90;;;;;;5085763;28;20574;-76
2022/12/01 11:48:07;;;;;;;29.37;19.83;;;3.50;99.90;;;;;;5080632;28;20502;-76
2022/12/01 11:50:35;;;;;;;38.87;20.80;;;3.40;99.90;;;;;;5083411;28;20486;-76
2022/12/01 11:53:03;;;;;;;34.97;18.80;;;3.40;99.90;;;;;;5087092;28;20489;-76
2022/12/01 11:55:31;;;;;;;36.10;20.40;;;3.40;99.90;;;;;;5090560;28;20534;-76
2022/12/01 11:58:01;;;;;;;37.37;22.07;;;3.40;99.90;;;;;;5086818;28;20467;-77
2022/12/01 12:00:33;;;;;;;44.40;19.40;;;3.50;99.90;;;;;;5096324;28;20457;-77
2022/12/01 12:03:20;;;;;;;30.13;17.73;;;3.40;99.90;;;;;;5090937;28;20548;-77
2022/12/01 12:06:17;;;;;;;30.20;18.33;;;3.50;99.90;;;;;;5094744;27;20486;-78
2022/12/01 12:09:00;;;;;;;32.50;19.77;;;3.50;99.90;;;;;;5090315;28;20482;-77
2022/12/01 12:11:38;;;;;;;33.80;16.90;;;3.50;99.90;;;;;;5091612;28;21042;-77
2022/12/01 12:14:35;;;;;;;31.50;20.10;;;3.40;99.90;;;;;;5100582;28;20508;-77
2022/12/01 12:17:38;;;;;;;38.77;19.73;;;3.20;99.90;;;;;;5086876;28;20518;-77
2022/12/01 12:20:34;;;;;;;35.80;19.50;;;3.40;99.90;;;;;;5087383;28;20502;-77
2022/12/01 12:23:23;;;;;;;35.83;21.30;;;3.40;99.90;;;;;;5096344;28;20597;-77
2022/12/01 12:26:02;;;;;;;34.90;20.00;;;3.30;99.90;;;;;;5089629;28;20454;-79
2022/12/01 12:28:44;;;;;;;31.17;19.00;;;3.40;99.90;;;;;;5091433;28;20474;-78
2022/12/01 12:31:18;;;;;;;34.40;18.30;;;3.30;99.90;;;;;;5086894;28;20558;-77
2022/12/01 12:34:06;;;;;;;35.40;20.17;;;3.30;99.90;;;;;;5088472;28;20492;-79
2022/12/01 12:36:43;;;;;;;34.30;19.47;;;3.10;99.90;;;;;;5089984;27;20567;-77
2022/12/01 12:39:26;;;;;;;32.17;20.10;;;3.10;99.90;;;;;;5092697;27;21025;-77
2022/12/01 12:41:55;;;;;;;30.90;19.97;;;3.10;99.90;;;;;;5086088;28;20494;-77
2022/12/01 12:44:43;;;;;;;37.57;20.00;;;3.30;99.90;;;;;;5090126;27;20552;-77
2022/12/01 12:47:22;;;;;;;33.97;18.47;;;3.40;99.90;;;;;;5093291;28;20445;-77
2022/12/01 12:49:55;;;;;;;36.03;19.43;;;3.40;99.90;;;;;;5085173;28;20498;-77
2022/12/01 12:52:32;;;;;;;27.63;17.00;;;3.40;99.90;;;;;;5088727;28;20495;-77
2022/12/01 12:55:04;;;;;;;41.67;21.70;;;3.40;99.90;;;;;;5093718;27;20473;-77
2022/12/01 12:57:34;;;;;;;45.40;21.80;;;3.40;99.90;;;;;;5092088;28;20514;-77
2022/12/01 13:00:05;;;;;;;35.03;21.87;;;3.30;99.90;;;;;;5093233;28;20524;-77